createdAt,value
2022-12-23T00:01:36.414Z,94092.81
2022-12-23T00:04:04.182Z,94101.25
2022-12-23T00:06:31.819Z,94100.44
2022-12-23T00:08:59.532Z,94090.66
2022-12-23T00:11:29.494Z,94100.44
2022-12-23T00:14:20.375Z,94090.91
2022-12-23T00:16:49.160Z,94076.00
2022-12-23T00:19:16.909Z,94072.44
2022-12-23T00:21:44.501Z,94065.41
2022-12-23T00:24:12.712Z,94074.09
2022-12-23T00:26:41.653Z,94075.16
2022-12-23T00:29:09.230Z,94057.53
2022-12-23T00:31:36.835Z,94048.00
2022-12-23T00:34:04.414Z,94055.81
2022-12-23T00:36:32.301Z,94048.53
2022-12-23T00:39:18.877Z,94041.41
2022-12-23T00:42:05.531Z,94033.53
2022-12-23T00:44:33.166Z,94022.63
2022-12-23T00:47:00.769Z,94023.34
2022-12-23T00:49:42.573Z,94024.75
2022-12-23T00:52:12.378Z,94026.63
2022-12-23T00:54:40.013Z,94029.50
2022-12-23T00:57:08.975Z,94026.25
2022-12-23T00:59:36.606Z,94016.22
2022-12-23T01:02:21.748Z,94017.06
2022-12-23T01:05:06.919Z,94014.91
2022-12-23T01:07:34.561Z,94016.41
2022-12-23T01:10:02.127Z,94014.50
2022-12-23T01:12:31.057Z,94019.91
2022-12-23T01:14:58.640Z,94016.97
2022-12-23T01:17:26.273Z,94016.63
2022-12-23T01:19:53.850Z,94011.53
2022-12-23T01:22:21.465Z,94019.16
2022-12-23T01:24:49.045Z,94015.63
2022-12-23T01:27:16.716Z,94023.19
2022-12-23T01:29:46.709Z,94029.41
2022-12-23T01:32:15.103Z,94023.69
2022-12-23T01:34:42.767Z,94025.31
2022-12-23T01:37:10.352Z,94024.25
2022-12-23T01:39:37.950Z,94022.63
2022-12-23T01:42:23.179Z,94019.66
2022-12-23T01:44:57.820Z,94017.28
2022-12-23T01:47:33.865Z,94016.22
2022-12-23T01:50:07.596Z,94011.63
2022-12-23T01:52:37.531Z,94013.22
2022-12-23T01:55:05.611Z,94011.13
2022-12-23T01:57:33.263Z,94017.91
2022-12-23T02:00:16.165Z,94011.19
2022-12-23T02:03:01.835Z,94016.41
2022-12-23T02:05:29.668Z,94009.00
2022-12-23T02:08:14.557Z,94003.69
2022-12-23T02:10:58.459Z,94008.19
2022-12-23T02:13:31.126Z,94009.69
2022-12-23T02:16:19.649Z,94016.53
2022-12-23T02:18:59.576Z,94016.13
2022-12-23T02:21:33.783Z,94021.41
2022-12-23T02:24:27.890Z,94016.38
2022-12-23T02:27:06.054Z,94020.25
2022-12-23T02:29:53.257Z,94024.44
2022-12-23T02:32:25.611Z,94036.44
2022-12-23T02:34:55.674Z,94045.16
2022-12-23T02:37:29.844Z,94048.22
2022-12-23T02:40:00.276Z,94049.03
2022-12-23T02:42:33.544Z,94053.13
2022-12-23T02:45:04.655Z,94051.78
2022-12-23T02:47:37.508Z,94059.13
2022-12-23T02:50:08.290Z,94045.03
2022-12-23T02:52:36.921Z,94050.72
2022-12-23T02:55:08.974Z,94057.72
2022-12-23T02:57:38.644Z,94057.22
2022-12-23T03:00:07.760Z,94044.50
2022-12-23T03:02:39.039Z,94045.84
2022-12-23T03:05:07.841Z,94049.13
2022-12-23T03:07:39.164Z,94042.88
2022-12-23T03:10:10.364Z,94046.16
2022-12-23T03:12:54.058Z,94045.63
2022-12-23T03:15:28.638Z,94045.13
2022-12-23T03:18:03.116Z,94051.66
2022-12-23T03:20:37.444Z,94053.88
2022-12-23T03:23:18.342Z,94059.84
2022-12-23T03:25:51.179Z,94072.66
2022-12-23T03:28:22.100Z,94067.22
2022-12-23T03:30:54.072Z,94057.75
2022-12-23T03:33:25.576Z,94062.66
2022-12-23T03:35:56.271Z,94061.28
2022-12-23T03:38:24.523Z,94063.75
2022-12-23T03:40:55.584Z,94064.28
2022-12-23T03:43:26.278Z,94066.19
2022-12-23T03:45:58.237Z,94075.13
2022-12-23T03:48:32.367Z,94077.56
2022-12-23T03:51:02.581Z,94078.91
2022-12-23T03:53:32.397Z,94082.75
2022-12-23T03:56:01.758Z,94084.13
2022-12-23T03:58:35.148Z,94089.28
2022-12-23T04:01:07.975Z,94090.69
2022-12-23T04:03:39.822Z,94090.41
2022-12-23T04:06:11.961Z,94082.28
2022-12-23T04:08:39.904Z,94086.63
2022-12-23T04:11:07.627Z,94090.47
2022-12-23T04:13:35.226Z,94086.69
2022-12-23T04:16:03.125Z,94093.16
2022-12-23T04:18:30.799Z,94085.53
2022-12-23T04:20:59.799Z,94090.97
2022-12-23T04:23:27.377Z,94098.06
2022-12-23T04:25:54.945Z,94095.88
2022-12-23T04:28:22.520Z,94099.13
2022-12-23T04:30:50.081Z,94096.41
2022-12-23T04:33:17.691Z,94110.03
2022-12-23T04:35:45.274Z,94101.31
2022-12-23T04:38:14.187Z,94110.03
2022-12-23T04:40:41.730Z,94118.72
2022-12-23T04:43:09.269Z,94122.03
2022-12-23T04:45:36.822Z,94110.66
2022-12-23T04:48:04.628Z,94110.94
2022-12-23T04:50:32.230Z,94118.28
2022-12-23T04:52:59.797Z,94121.59
2022-12-23T04:55:28.750Z,94116.44
2022-12-23T04:57:56.318Z,94113.22
2022-12-23T05:00:23.980Z,94114.56
2022-12-23T05:02:51.674Z,94123.28
2022-12-23T05:05:19.394Z,94120.03
2022-12-23T05:07:49.480Z,94120.31
2022-12-23T05:10:17.571Z,94113.53
2022-12-23T05:12:46.486Z,94126.88
2022-12-23T05:15:14.065Z,94121.69
2022-12-23T05:17:41.612Z,94125.78
2022-12-23T05:20:10.692Z,94123.94
2022-12-23T05:22:38.259Z,94127.72
2022-12-23T05:25:06.925Z,94135.06
2022-12-23T05:27:34.551Z,94126.09
2022-12-23T05:30:03.584Z,94138.59
2022-12-23T05:32:31.200Z,94130.72
2022-12-23T05:34:58.830Z,94133.75
2022-12-23T05:37:26.930Z,94127.22
2022-12-23T05:39:54.527Z,94136.19
2022-12-23T05:42:22.131Z,94129.94
2022-12-23T05:44:49.717Z,94138.63
2022-12-23T05:47:18.780Z,94150.31
2022-12-23T05:49:46.409Z,94142.44
2022-12-23T05:52:14.025Z,94149.47
2022-12-23T05:54:41.742Z,94152.50
2022-12-23T05:57:09.398Z,94146.81
2022-12-23T05:59:37.058Z,94147.94
2022-12-23T06:02:04.763Z,94156.94
2022-12-23T06:04:33.906Z,94158.88
2022-12-23T06:07:01.527Z,94162.69
2022-12-23T06:09:29.228Z,94165.69
2022-12-23T06:11:56.806Z,94162.09
2022-12-23T06:14:28.756Z,94164.81
2022-12-23T06:16:57.107Z,94178.97
2022-12-23T06:19:25.048Z,94178.72
2022-12-23T06:21:53.995Z,94174.41
2022-12-23T06:24:21.666Z,94176.03
2022-12-23T06:26:53.466Z,94182.03
2022-12-23T06:29:24.531Z,94185.06
2022-12-23T06:31:52.216Z,94191.56
2022-12-23T06:34:19.921Z,94198.09
2022-12-23T06:36:47.478Z,94196.72
2022-12-23T06:39:16.537Z,94205.13
2022-12-23T06:41:44.138Z,94197.22
2022-12-23T06:44:11.725Z,94198.31
2022-12-23T06:46:39.328Z,94202.91
2022-12-23T06:49:12.840Z,94208.34
2022-12-23T06:51:41.372Z,94210.56
2022-12-23T06:54:11.237Z,94220.38
2022-12-23T06:56:40.548Z,94212.75
2022-12-23T06:59:08.194Z,94220.41
2022-12-23T07:01:35.890Z,94216.59
2022-12-23T07:04:03.679Z,94229.38
2022-12-23T07:06:31.261Z,94234.81
2022-12-23T07:08:58.959Z,94233.16
2022-12-23T07:11:26.603Z,94237.53
2022-12-23T07:13:55.516Z,94241.31
2022-12-23T07:16:23.163Z,94236.72
2022-12-23T07:18:50.804Z,94239.69
2022-12-23T07:21:28.299Z,94241.59
2022-12-23T07:23:56.915Z,94242.69
2022-12-23T07:26:24.751Z,94252.47
2022-12-23T07:28:52.332Z,94253.56
2022-12-23T07:31:21.551Z,94253.00
2022-12-23T07:33:49.375Z,94251.91
2022-12-23T07:36:16.933Z,94254.34
2022-12-23T07:38:44.535Z,94262.25
2022-12-23T07:41:12.210Z,94272.59
2022-12-23T07:43:39.873Z,94267.41
2022-12-23T07:46:08.225Z,94262.78
2022-12-23T07:48:37.361Z,94258.19
2022-12-23T07:51:05.750Z,94264.16
2022-12-23T07:53:33.399Z,94261.44
2022-12-23T07:56:01.030Z,94261.72
2022-12-23T07:58:28.680Z,94256.53
2022-12-23T08:01:01.508Z,94261.16
2022-12-23T08:03:29.336Z,94263.28
2022-12-23T08:06:02.551Z,94268.72
2022-12-23T08:08:30.260Z,94267.41
2022-12-23T08:10:59.511Z,94259.50
2022-12-23T08:13:27.263Z,94254.59
2022-12-23T08:15:58.449Z,94254.59
2022-12-23T08:18:27.087Z,94247.53
2022-12-23T08:20:55.937Z,94250.78
2022-12-23T08:23:25.828Z,94250.28
2022-12-23T08:26:00.356Z,94247.03
2022-12-23T08:28:28.169Z,94244.31
2022-12-23T08:30:55.905Z,94245.13
2022-12-23T08:33:23.651Z,94247.59
2022-12-23T08:35:55.076Z,94231.28
2022-12-23T08:38:22.818Z,94242.97
2022-12-23T08:40:51.841Z,94242.16
2022-12-23T08:43:20.417Z,94245.44
2022-12-23T08:45:48.055Z,94235.94
2022-12-23T08:48:16.162Z,94234.59
2022-12-23T08:50:45.126Z,94244.41
2022-12-23T08:53:13.657Z,94245.22
2022-12-23T08:55:42.739Z,94262.06
2022-12-23T08:58:12.523Z,94266.44
2022-12-23T09:00:40.287Z,94275.97
2022-12-23T09:03:08.111Z,94275.41
2022-12-23T09:05:40.649Z,94286.03
2022-12-23T09:08:08.320Z,94286.84
2022-12-23T09:10:36.014Z,94288.50
2022-12-23T09:13:03.683Z,94292.88
2022-12-23T09:15:32.685Z,94293.44
2022-12-23T09:18:00.330Z,94295.63
2022-12-23T09:20:27.945Z,94294.53
2022-12-23T09:22:55.538Z,94292.38
2022-12-23T09:25:23.226Z,94289.72
2022-12-23T09:27:50.840Z,94290.28
2022-12-23T09:30:18.622Z,94283.00
2022-12-23T09:32:47.614Z,94277.03
2022-12-23T09:35:15.343Z,94285.75
2022-12-23T09:37:42.932Z,94290.38
2022-12-23T09:40:12.385Z,94276.78
2022-12-23T09:42:51.108Z,94279.75
2022-12-23T09:45:40.162Z,94284.44
2022-12-23T09:48:11.687Z,94286.06
2022-12-23T09:50:39.467Z,94285.78
2022-12-23T09:53:09.014Z,94279.28
2022-12-23T09:55:41.539Z,94279.00
2022-12-23T09:58:15.503Z,94274.13
2022-12-23T10:00:57.308Z,94278.47
2022-12-23T10:03:30.178Z,94266.22
2022-12-23T10:06:02.831Z,94258.03
2022-12-23T10:08:34.547Z,94271.94
2022-12-23T10:11:06.502Z,94261.06
2022-12-23T10:13:37.913Z,94260.53
2022-12-23T10:16:09.596Z,94254.00
2022-12-23T10:18:44.848Z,94251.78
2022-12-23T10:21:15.291Z,94248.50
2022-12-23T10:23:45.374Z,94238.13
2022-12-23T10:26:18.701Z,94235.66
2022-12-23T10:28:46.331Z,94236.47
2022-12-23T10:31:39.133Z,94234.06
2022-12-23T10:34:14.227Z,94232.72
2022-12-23T10:36:48.278Z,94227.00
2022-12-23T10:39:24.379Z,94238.19
2022-12-23T10:41:59.173Z,94239.84
2022-12-23T10:45:02.648Z,94230.84
2022-12-23T10:47:39.945Z,94236.03
2022-12-23T10:50:20.205Z,94232.53
2022-12-23T10:52:49.900Z,94240.44
2022-12-23T10:55:26.132Z,94232.81
2022-12-23T10:58:01.124Z,94235.00
2022-12-23T11:00:28.778Z,94236.38
2022-12-23T11:03:05.098Z,94235.28
2022-12-23T11:05:34.699Z,94229.06
2022-12-23T11:08:03.066Z,94223.34
2022-12-23T11:10:33.056Z,94220.34
2022-12-23T11:13:01.367Z,94225.28
2022-12-23T11:15:32.456Z,94218.47
2022-12-23T11:18:02.200Z,94217.38
2022-12-23T11:20:30.447Z,94217.13
2022-12-23T11:23:02.194Z,94229.63
2022-12-23T11:25:33.442Z,94228.81
2022-12-23T11:28:04.549Z,94230.47
2022-12-23T11:30:33.821Z,94227.75
2022-12-23T11:33:01.465Z,94232.09
2022-12-23T11:35:31.828Z,94226.66
2022-12-23T11:38:02.120Z,94215.75
2022-12-23T11:40:31.496Z,94206.75
2022-12-23T11:43:01.785Z,94199.94
2022-12-23T11:45:30.499Z,94192.88
2022-12-23T11:47:58.155Z,94193.66
2022-12-23T11:50:29.520Z,94170.50
2022-12-23T11:53:05.334Z,94181.69
2022-12-23T11:55:33.796Z,94184.41
2022-12-23T11:58:02.455Z,94196.94
2022-12-23T12:00:34.769Z,94191.47
2022-12-23T12:03:04.838Z,94197.44
2022-12-23T12:05:37.208Z,94199.91
2022-12-23T12:08:08.446Z,94193.66
2022-12-23T12:10:38.169Z,94197.44
2022-12-23T12:13:07.531Z,94191.47
2022-12-23T12:15:38.228Z,94190.66
2022-12-23T12:18:08.162Z,94190.66
2022-12-23T12:20:37.677Z,94190.91
2022-12-23T12:23:10.424Z,94187.94
2022-12-23T12:25:41.603Z,94197.97
2022-12-23T12:28:12.668Z,94191.72
2022-12-23T12:30:44.852Z,94184.38
2022-12-23T12:33:14.195Z,94186.53
2022-12-23T12:35:44.570Z,94178.91
2022-12-23T12:38:19.508Z,94165.00
2022-12-23T12:40:51.021Z,94157.13
2022-12-23T12:43:25.142Z,94160.94
2022-12-23T12:45:54.455Z,94159.03
2022-12-23T12:48:39.961Z,94164.47
2022-12-23T12:51:15.549Z,94162.00
2022-12-23T12:54:05.144Z,94141.59
2022-12-23T12:56:36.574Z,94152.50
2022-12-23T12:59:04.635Z,94144.00
2022-12-23T13:01:39.763Z,94135.84
2022-12-23T13:04:53.215Z,94133.38
2022-12-23T13:07:26.466Z,94127.91
2022-12-23T13:10:01.913Z,94126.03
2022-12-23T13:12:40.344Z,94112.97
2022-12-23T13:15:18.095Z,94120.56
2022-12-23T13:17:50.038Z,94115.94
2022-12-23T13:20:30.298Z,94116.94
2022-12-23T13:23:26.985Z,94112.06
2022-12-23T13:25:58.516Z,94111.22
2022-12-23T13:28:33.323Z,94114.47
2022-12-23T13:31:06.858Z,94104.38
2022-12-23T13:33:37.393Z,94105.47
2022-12-23T13:36:12.383Z,94110.63
2022-12-23T13:39:06.833Z,94108.47
2022-12-23T13:41:39.509Z,94100.28
2022-12-23T13:44:10.699Z,94096.47
2022-12-23T13:46:47.010Z,94099.16
2022-12-23T13:49:21.002Z,94099.66
2022-12-23T13:51:53.139Z,94092.59
2022-12-23T13:54:22.963Z,94088.22
2022-12-23T13:56:57.972Z,94088.75
2022-12-23T13:59:39.513Z,94084.97
2022-12-23T14:02:42.621Z,94080.06
2022-12-23T14:05:29.883Z,94063.22
2022-12-23T14:07:58.206Z,94061.03
2022-12-23T14:10:26.739Z,94062.69
2022-12-23T14:13:02.461Z,94054.53
2022-12-23T14:15:55.203Z,94052.63
2022-12-23T14:18:37.894Z,94050.16
2022-12-23T14:21:13.241Z,94048.56
2022-12-23T14:24:03.842Z,94061.03
2022-12-23T14:26:50.460Z,94055.59
2022-12-23T14:29:45.104Z,94052.06
2022-12-23T14:32:21.261Z,94052.34
2022-12-23T14:35:19.696Z,94058.31
2022-12-23T14:38:12.211Z,94047.69
2022-12-23T14:40:53.605Z,94040.34
2022-12-23T14:43:55.926Z,94040.06
2022-12-23T14:46:55.233Z,94046.34
2022-12-23T14:49:41.536Z,94046.59
2022-12-23T14:52:47.945Z,94043.88
2022-12-23T14:55:44.123Z,94040.31
2022-12-23T14:58:26.022Z,94042.50
2022-12-23T15:00:58.455Z,94037.84
2022-12-23T15:03:29.336Z,94047.38
2022-12-23T15:05:57.435Z,94049.84
2022-12-23T15:08:30.435Z,94047.38
2022-12-23T15:10:58.680Z,94037.84
2022-12-23T15:13:28.690Z,94045.19
2022-12-23T15:16:01.465Z,94037.59
2022-12-23T15:18:31.143Z,94039.22
2022-12-23T15:21:00.927Z,94038.69
2022-12-23T15:23:28.641Z,94034.31
2022-12-23T15:25:58.654Z,94034.88
2022-12-23T15:28:35.251Z,94040.31
2022-12-23T15:31:03.234Z,94045.72
2022-12-23T15:34:02.174Z,94053.63
2022-12-23T15:36:28.425Z,94049.84
2022-12-23T15:38:56.098Z,94038.97
2022-12-23T15:41:23.719Z,94046.84
2022-12-23T15:43:51.745Z,94038.69
2022-12-23T15:46:28.599Z,94051.19
2022-12-23T15:48:59.097Z,94063.47
2022-12-23T15:52:05.250Z,94062.09
2022-12-23T15:54:23.228Z,94063.47
2022-12-23T15:56:52.990Z,94061.03
2022-12-23T15:59:25.065Z,94061.03
2022-12-23T16:01:53.289Z,94065.69
2022-12-23T16:04:26.149Z,94070.88
2022-12-23T16:06:54.155Z,94065.72
2022-12-23T16:09:33.402Z,94057.03
2022-12-23T16:12:04.099Z,94063.81
2022-12-23T16:14:38.020Z,94061.41
2022-12-23T16:17:18.323Z,94055.16
2022-12-23T16:19:48.951Z,94058.16
2022-12-23T16:22:35.658Z,94053.03
2022-12-23T16:25:11.010Z,94061.72
2022-12-23T16:27:40.179Z,94061.47
2022-12-23T16:30:15.856Z,94062.28
2022-12-23T16:32:48.414Z,94070.97
2022-12-23T16:35:26.951Z,94072.13
2022-12-23T16:37:58.601Z,94083.56
2022-12-23T16:40:26.402Z,94087.34
2022-12-23T16:42:53.982Z,94079.19
2022-12-23T16:45:21.976Z,94091.44
2022-12-23T16:47:58.328Z,94085.47
2022-12-23T16:50:27.816Z,94101.25
2022-12-23T16:52:55.405Z,94108.06
2022-12-23T16:55:23.045Z,94099.91
2022-12-23T16:57:50.681Z,94105.34
2022-12-23T17:00:19.791Z,94094.44
2022-12-23T17:02:48.495Z,94098.53
2022-12-23T17:05:17.292Z,94105.59
2022-12-23T17:07:46.463Z,94102.88
2022-12-23T17:10:14.995Z,94095.81
2022-12-23T17:12:43.198Z,94104.78
2022-12-23T17:15:17.576Z,94109.13
2022-12-23T17:17:45.359Z,94113.50
2022-12-23T17:20:13.558Z,94117.03
2022-12-23T17:22:41.657Z,94105.88
2022-12-23T17:25:12.630Z,94111.91
2022-12-23T17:27:40.375Z,94114.31
2022-12-23T17:30:10.121Z,94114.88
2022-12-23T17:32:37.845Z,94115.16
2022-12-23T17:35:06.138Z,94114.63
2022-12-23T17:37:33.768Z,94120.59
2022-12-23T17:40:01.436Z,94128.50
2022-12-23T17:42:30.825Z,94125.78
2022-12-23T17:44:58.467Z,94112.47
2022-12-23T17:47:26.075Z,94113.00
2022-12-23T17:49:53.721Z,94116.53
2022-12-23T17:52:22.973Z,94106.22
2022-12-23T17:54:51.903Z,94107.28
2022-12-23T17:57:22.720Z,94102.66
2022-12-23T17:59:53.546Z,94091.78
2022-12-23T18:02:23.215Z,94096.66
2022-12-23T18:04:51.441Z,94100.47
2022-12-23T18:07:19.551Z,94095.03
2022-12-23T18:09:47.565Z,94093.41
2022-12-23T18:12:25.106Z,94091.22
2022-12-23T18:14:54.241Z,94090.16
2022-12-23T18:17:21.849Z,94092.59
2022-12-23T18:19:49.521Z,94080.88
2022-12-23T18:22:19.459Z,94100.19
2022-12-23T18:24:49.384Z,94092.88
2022-12-23T18:27:22.574Z,94088.50
2022-12-23T18:29:50.793Z,94100.47
2022-12-23T18:32:25.334Z,94102.13
2022-12-23T18:34:54.486Z,94102.13
2022-12-23T18:37:22.499Z,94091.25
2022-12-23T18:39:50.089Z,94085.25
2022-12-23T18:42:19.199Z,94076.28
2022-12-23T18:44:48.148Z,94078.16
2022-12-23T18:47:15.738Z,94066.75
2022-12-23T18:49:44.758Z,94078.44
2022-12-23T18:52:13.369Z,94063.22
2022-12-23T18:54:41.257Z,94079.28
2022-12-23T18:57:10.650Z,94070.84
2022-12-23T18:59:39.613Z,94071.41
2022-12-23T19:02:08.040Z,94074.94
2022-12-23T19:04:35.678Z,94078.22
2022-12-23T19:07:04.696Z,94070.34
2022-12-23T19:09:32.501Z,94077.41
2022-12-23T19:12:00.292Z,94082.84
2022-12-23T19:14:27.917Z,94083.66
2022-12-23T19:16:55.585Z,94085.81
2022-12-23T19:19:23.263Z,94081.22
2022-12-23T19:21:51.117Z,94080.38
2022-12-23T19:24:20.138Z,94082.03
2022-12-23T19:26:48.141Z,94078.22
2022-12-23T19:29:16.116Z,94081.75
2022-12-23T19:31:43.845Z,94071.66
2022-12-23T19:34:15.476Z,94082.03
2022-12-23T19:36:43.685Z,94093.19
2022-12-23T19:39:16.175Z,94089.94
2022-12-23T19:41:46.161Z,94089.06
2022-12-23T19:44:13.792Z,94098.91
2022-12-23T19:46:41.566Z,94100.53
2022-12-23T19:49:12.782Z,94099.44
2022-12-23T19:51:43.493Z,94122.34
2022-12-23T19:54:11.113Z,94117.69
2022-12-23T19:56:38.822Z,94127.25
2022-12-23T19:59:08.315Z,94125.06
2022-12-23T20:01:36.009Z,94123.94
2022-12-23T20:04:03.712Z,94139.22
2022-12-23T20:06:34.227Z,94139.47
2022-12-23T20:09:04.323Z,94141.94
2022-12-23T20:11:34.299Z,94153.63
2022-12-23T20:14:02.714Z,94135.44
2022-12-23T20:16:31.915Z,94147.94
2022-12-23T20:18:59.564Z,94146.59
2022-12-23T20:21:27.221Z,94144.94
2022-12-23T20:23:55.336Z,94136.50
2022-12-23T20:26:24.132Z,94143.59
2022-12-23T20:28:52.247Z,94156.94
2022-12-23T20:31:22.173Z,94163.19
2022-12-23T20:33:52.699Z,94168.63
2022-12-23T20:36:22.367Z,94162.63
2022-12-23T20:38:50.077Z,94135.94
2022-12-23T20:41:20.129Z,94140.25
2022-12-23T20:44:02.925Z,94144.91
2022-12-23T20:46:35.450Z,94145.16
2022-12-23T20:49:04.496Z,94145.44
2022-12-23T20:51:32.159Z,94145.97
2022-12-23T20:54:00.975Z,94146.81
2022-12-23T20:56:30.427Z,94154.38
2022-12-23T20:58:59.498Z,94161.47
2022-12-23T21:01:29.466Z,94174.03
2022-12-23T21:03:57.869Z,94171.81
2022-12-23T21:06:27.850Z,94178.09
2022-12-23T21:08:58.103Z,94185.47
2022-12-23T21:11:26.114Z,94188.19
2022-12-23T21:13:53.913Z,94180.03
2022-12-23T21:16:21.656Z,94182.47
2022-12-23T21:18:52.576Z,94187.66
2022-12-23T21:21:20.955Z,94188.22
2022-12-23T21:23:50.679Z,94195.59
2022-12-23T21:26:20.225Z,94192.88
2022-12-23T21:28:49.316Z,94222.81
2022-12-23T21:31:18.495Z,94219.25
2022-12-23T21:33:47.237Z,94233.47
2022-12-23T21:36:20.291Z,94241.09
2022-12-23T21:38:50.267Z,94241.91
2022-12-23T21:41:20.409Z,94238.66
2022-12-23T21:43:48.245Z,94245.97
2022-12-23T21:46:17.734Z,94224.47
2022-12-23T21:48:45.523Z,94248.19
2022-12-23T21:51:15.560Z,94251.19
2022-12-23T21:53:44.249Z,94269.44
2022-12-23T21:56:14.717Z,94272.44
2022-12-23T21:58:42.594Z,94267.28
2022-12-23T22:01:11.533Z,94266.47
2022-12-23T22:03:39.423Z,94268.13
2022-12-23T22:06:10.652Z,94268.41
2022-12-23T22:08:38.705Z,94267.88
2022-12-23T22:11:07.593Z,94271.13
2022-12-23T22:13:36.735Z,94266.50
2022-12-23T22:16:04.966Z,94275.47
2022-12-23T22:18:32.630Z,94276.84
2022-12-23T22:21:00.315Z,94270.84
2022-12-23T22:23:27.987Z,94283.38
2022-12-23T22:25:56.114Z,94278.19
2022-12-23T22:28:23.912Z,94283.09
2022-12-23T22:30:52.886Z,94276.53
2022-12-23T22:33:21.147Z,94280.34
2022-12-23T22:35:54.855Z,94279.81
2022-12-23T22:38:22.545Z,94286.03
2022-12-23T22:40:50.775Z,94265.63
2022-12-23T22:43:19.073Z,94281.41
2022-12-23T22:45:47.778Z,94285.22
2022-12-23T22:48:18.469Z,94286.00
2022-12-23T22:53:49.556Z,94299.63
2022-12-23T22:56:31.127Z,94296.91
2022-12-23T22:59:05.380Z,94295.56
2022-12-23T23:02:00.140Z,94284.09
2022-12-23T23:11:27.345Z,94280.28
2022-12-23T23:13:56.199Z,94291.97
2022-12-23T23:16:36.629Z,94309.13
2022-12-23T23:19:06.449Z,94313.50
2022-12-23T23:21:50.413Z,94312.09
2022-12-23T23:24:31.239Z,94313.19
2022-12-23T23:26:59.428Z,94330.88
2022-12-23T23:29:27.249Z,94329.81
2022-12-23T23:31:55.061Z,94338.22
2022-12-23T23:34:22.815Z,94342.03
2022-12-23T23:36:52.048Z,94331.75
2022-12-23T23:39:19.846Z,94328.44
2022-12-23T23:41:47.464Z,94325.44
2022-12-23T23:44:15.265Z,94317.50
2022-12-23T23:46:42.894Z,94333.53
2022-12-23T23:49:10.711Z,94343.34
2022-12-23T23:51:38.621Z,94334.91
2022-12-23T23:54:07.849Z,94327.00
2022-12-23T23:56:38.559Z,94336.22
2022-12-23T23:59:07.159Z,94355.81
